Time;durP1;ratioP1;P1;durP2;ratioP2;P2;SDS_P1;SDS_P2;PMS_P1;PMS_P2;Temp;Humidity;BMP_temperature;BMP_pressure;BME280_temperature;BME280_humidity;BME280_pressure;Samples;Min_cycle;Max_cycle;Signal;HPM_P1;HPM_P2
2021/07/15 00:01:45;;;;;;;0.80;0.80;;;15.60;99.90;;;;;;5031775;28;20253;-62
2021/07/15 00:04:14;;;;;;;1.37;0.60;;;15.60;99.90;;;;;;5031903;28;20166;-63
2021/07/15 00:06:40;;;;;;;1.00;0.90;;;15.60;99.90;;;;;;5031900;28;20174;-63
2021/07/15 00:09:06;;;;;;;0.67;0.67;;;15.60;99.90;;;;;;5031622;28;20789;-63
2021/07/15 00:11:36;;;;;;;0.80;0.80;;;15.70;99.90;;;;;;5031711;28;20441;-63
2021/07/15 00:14:03;;;;;;;0.70;0.70;;;15.60;99.90;;;;;;5031695;28;20224;-62
2021/07/15 00:16:28;;;;;;;1.10;1.10;;;15.60;99.90;;;;;;5031637;28;20467;-63
2021/07/15 00:18:54;;;;;;;0.73;0.70;;;15.60;99.90;;;;;;5031313;28;20410;-61
2021/07/15 00:21:23;;;;;;;1.33;0.87;;;15.60;99.90;;;;;;5031662;28;20205;-62
2021/07/15 00:23:50;;;;;;;1.27;0.70;;;15.60;99.90;;;;;;5031767;28;20158;-62
2021/07/15 00:26:17;;;;;;;0.73;0.73;;;15.60;99.90;;;;;;5031704;28;20792;-62
2021/07/15 00:28:42;;;;;;;0.80;0.80;;;15.50;99.90;;;;;;5034116;28;20420;-63
2021/07/15 00:31:09;;;;;;;1.47;0.70;;;15.50;99.90;;;;;;5035485;28;20436;-62
2021/07/15 00:33:35;;;;;;;2.20;0.90;;;15.50;99.90;;;;;;5035478;28;20170;-62
2021/07/15 00:36:01;;;;;;;1.50;0.63;;;15.40;99.90;;;;;;5035506;28;20539;-63
2021/07/15 00:38:27;;;;;;;0.77;0.77;;;15.40;99.90;;;;;;5035194;28;20171;-62
2021/07/15 00:40:53;;;;;;;1.97;0.70;;;15.30;99.90;;;;;;5035298;28;20441;-63
2021/07/15 00:43:19;;;;;;;0.60;0.60;;;15.20;99.90;;;;;;5035187;28;20417;-64
2021/07/15 00:45:45;;;;;;;1.07;0.70;;;15.20;99.90;;;;;;5035551;28;20807;-63
2021/07/15 00:48:11;;;;;;;0.70;0.70;;;15.10;99.90;;;;;;5035129;28;20471;-62
2021/07/15 00:50:38;;;;;;;1.30;0.83;;;15.10;99.90;;;;;;5034920;28;20209;-61
2021/07/15 00:53:04;;;;;;;0.80;0.60;;;15.10;99.90;;;;;;5035161;28;20838;-64
2021/07/15 00:55:41;;;;;;;0.70;0.70;;;15.10;99.90;;;;;;5035083;28;20548;-63
2021/07/15 00:58:12;;;;;;;0.70;0.70;;;15.10;99.90;;;;;;5035020;28;20451;-62
2021/07/15 01:00:40;;;;;;;0.83;0.83;;;15.10;99.90;;;;;;5034713;28;20499;-62
2021/07/15 01:03:07;;;;;;;2.93;0.70;;;15.00;99.90;;;;;;5034837;28;20460;-62
2021/07/15 01:05:38;;;;;;;0.80;0.80;;;15.00;99.90;;;;;;5035080;28;20408;-63
2021/07/15 01:08:05;;;;;;;0.83;0.60;;;15.00;99.90;;;;;;5034909;28;20413;-62
2021/07/15 01:10:40;;;;;;;0.60;0.60;;;15.00;99.90;;;;;;5034536;28;20467;-64
2021/07/15 01:13:37;;;;;;;0.80;0.80;;;14.90;99.90;;;;;;5034853;28;20413;-62
2021/07/15 01:16:30;;;;;;;3.80;0.73;;;14.90;99.90;;;;;;5034737;28;20468;-62
2021/07/15 01:19:20;;;;;;;0.73;0.73;;;14.90;99.90;;;;;;5034257;28;20417;-62
2021/07/15 01:22:19;;;;;;;1.20;0.80;;;14.90;99.90;;;;;;5034765;28;20780;-62
2021/07/15 01:25:08;;;;;;;0.60;0.60;;;14.90;99.90;;;;;;5034596;28;20413;-62
2021/07/15 01:27:45;;;;;;;0.90;0.60;;;14.90;99.90;;;;;;4997146;28;20499;-62
2021/07/15 01:30:21;;;;;;;0.50;0.50;;;14.90;99.90;;;;;;5034121;28;20520;-63
2021/07/15 01:32:53;;;;;;;1.63;0.73;;;14.90;99.90;;;;;;5034495;28;20416;-62
2021/07/15 01:35:23;;;;;;;0.83;0.83;;;14.80;99.90;;;;;;5034318;28;20423;-62
2021/07/15 01:37:52;;;;;;;0.63;0.63;;;14.80;99.90;;;;;;5034332;28;20421;-62
2021/07/15 01:40:21;;;;;;;7.60;0.87;;;14.80;99.90;;;;;;5033236;28;20445;-63
2021/07/15 01:42:55;;;;;;;1.40;0.70;;;14.80;99.90;;;;;;5034253;28;20433;-62
2021/07/15 01:45:21;;;;;;;0.63;0.63;;;14.70;99.90;;;;;;5034217;28;20416;-62
2021/07/15 01:47:47;;;;;;;0.60;0.60;;;14.70;99.90;;;;;;5034268;28;20961;-62
2021/07/15 01:50:14;;;;;;;0.60;0.60;;;14.70;99.90;;;;;;5033878;28;20201;-62
2021/07/15 01:52:39;;;;;;;0.93;0.77;;;14.60;99.90;;;;;;5034086;28;20171;-61
2021/07/15 01:55:06;;;;;;;2.30;1.13;;;14.70;99.90;;;;;;5034033;28;20432;-62
2021/07/15 01:57:32;;;;;;;0.80;0.80;;;14.70;99.90;;;;;;5033858;28;20198;-63
2021/07/15 01:59:58;;;;;;;0.50;0.50;;;14.70;99.90;;;;;;5033402;28;20555;-62
2021/07/15 02:02:27;;;;;;;1.37;0.70;;;14.70;99.90;;;;;;5033694;28;20433;-62
2021/07/15 02:04:56;;;;;;;1.43;0.53;;;14.60;99.90;;;;;;5033784;28;20759;-62
2021/07/15 02:07:24;;;;;;;0.80;0.80;;;14.60;99.90;;;;;;5033866;28;20771;-61
2021/07/15 02:09:51;;;;;;;0.73;0.60;;;14.60;99.90;;;;;;5033364;28;20445;-62
2021/07/15 02:12:19;;;;;;;0.90;0.90;;;14.60;99.90;;;;;;5033649;28;20478;-63
2021/07/15 02:14:47;;;;;;;0.93;0.80;;;14.60;99.90;;;;;;5015911;28;20435;-62
2021/07/15 02:17:13;;;;;;;0.77;0.77;;;14.60;99.90;;;;;;5033395;28;20459;-61
2021/07/15 02:19:40;;;;;;;0.97;0.60;;;14.50;99.90;;;;;;5033269;28;20435;-61
2021/07/15 02:22:06;;;;;;;1.07;0.57;;;14.50;99.90;;;;;;5033483;28;20444;-62
2021/07/15 02:24:33;;;;;;;1.37;0.70;;;14.50;99.90;;;;;;5033595;28;20445;-63
2021/07/15 02:27:03;;;;;;;1.40;0.70;;;14.40;99.90;;;;;;5033321;28;20177;-62
2021/07/15 02:29:29;;;;;;;1.63;0.70;;;14.40;99.90;;;;;;5033110;28;20428;-60
2021/07/15 02:31:59;;;;;;;1.17;0.60;;;14.40;99.90;;;;;;5033186;28;20421;-62
2021/07/15 02:34:31;;;;;;;1.30;0.60;;;14.40;99.90;;;;;;5033390;28;20460;-62
2021/07/15 02:37:00;;;;;;;0.90;0.60;;;14.40;99.90;;;;;;5033088;28;20474;-62
2021/07/15 02:39:26;;;;;;;1.80;0.50;;;14.50;99.90;;;;;;5032888;28;20977;-62
2021/07/15 02:41:51;;;;;;;0.70;0.70;;;14.50;99.90;;;;;;5031431;28;20510;-62
2021/07/15 02:44:17;;;;;;;1.20;0.60;;;14.50;99.90;;;;;;5013274;28;20209;-64
2021/07/15 02:46:42;;;;;;;0.50;0.50;;;14.50;99.90;;;;;;5013241;28;20740;-62
2021/07/15 02:49:08;;;;;;;1.23;0.70;;;14.50;99.90;;;;;;5013675;28;20186;-62
2021/07/15 02:51:34;;;;;;;0.60;0.60;;;14.60;99.90;;;;;;5012172;28;20227;-62
2021/07/15 02:54:01;;;;;;;1.07;0.73;;;14.60;99.90;;;;;;5013221;28;20171;-64
2021/07/15 02:56:35;;;;;;;0.80;0.50;;;14.60;99.90;;;;;;5012917;28;20397;-62
2021/07/15 02:59:26;;;;;;;0.60;0.60;;;14.60;99.90;;;;;;5012494;28;20938;-62
2021/07/15 03:02:19;;;;;;;0.60;0.60;;;14.70;99.90;;;;;;4984322;28;20483;-62
2021/07/15 03:05:00;;;;;;;1.43;0.57;;;14.60;99.90;;;;;;5013048;28;20428;-62
2021/07/15 03:07:30;;;;;;;0.60;0.60;;;14.60;99.90;;;;;;5012968;28;20457;-62
2021/07/15 03:09:56;;;;;;;1.43;0.60;;;14.60;99.90;;;;;;5012678;28;20425;-62
2021/07/15 03:12:30;;;;;;;0.50;0.50;;;14.60;99.90;;;;;;5024730;28;20437;-62
2021/07/15 03:14:56;;;;;;;0.70;0.70;;;14.60;99.90;;;;;;5032607;28;20427;-66
2021/07/15 03:17:34;;;;;;;0.70;0.70;;;14.70;99.90;;;;;;5014671;28;20464;-64
2021/07/15 03:20:11;;;;;;;0.90;0.80;;;14.80;99.90;;;;;;5032099;28;20437;-62
2021/07/15 03:22:38;;;;;;;0.97;0.70;;;14.80;99.90;;;;;;5032474;28;20404;-62
2021/07/15 03:25:14;;;;;;;1.30;0.60;;;14.80;99.90;;;;;;5032419;28;20416;-62
2021/07/15 03:27:45;;;;;;;2.93;0.60;;;14.70;99.90;;;;;;5032285;28;20455;-62
2021/07/15 03:30:13;;;;;;;1.33;0.70;;;14.70;99.90;;;;;;5031929;28;20463;-66
2021/07/15 03:32:39;;;;;;;1.00;0.90;;;14.80;99.90;;;;;;5032148;28;20417;-62
2021/07/15 03:35:05;;;;;;;0.70;0.70;;;14.80;99.90;;;;;;5032317;28;20580;-62
2021/07/15 03:37:34;;;;;;;0.70;0.70;;;14.90;99.90;;;;;;5032202;28;20828;-62
2021/07/15 03:40:00;;;;;;;1.43;0.70;;;14.90;99.90;;;;;;5031844;28;20451;-63
2021/07/15 03:42:28;;;;;;;1.53;0.60;;;15.00;99.90;;;;;;5032108;28;20582;-62
2021/07/15 03:44:54;;;;;;;0.60;0.60;;;15.00;99.90;;;;;;5032049;28;20666;-61
2021/07/15 03:47:22;;;;;;;0.60;0.60;;;14.90;99.90;;;;;;5032021;28;20466;-62
2021/07/15 03:49:48;;;;;;;0.77;0.60;;;14.90;99.90;;;;;;5031686;28;20964;-62
2021/07/15 03:52:16;;;;;;;0.60;0.50;;;14.90;99.90;;;;;;5032074;28;20448;-62
2021/07/15 03:54:43;;;;;;;1.27;0.70;;;14.90;99.90;;;;;;5031984;28;20478;-62
2021/07/15 03:57:14;;;;;;;3.30;0.63;;;14.90;99.90;;;;;;5031691;28;20467;-62
2021/07/15 03:59:44;;;;;;;1.17;0.70;;;14.90;99.90;;;;;;5031589;28;20546;-62
2021/07/15 04:02:11;;;;;;;1.90;0.60;;;14.90;99.90;;;;;;5028700;28;20449;-62
2021/07/15 04:04:41;;;;;;;0.80;0.60;;;15.00;99.90;;;;;;5016323;28;20417;-62
2021/07/15 04:07:08;;;;;;;0.70;0.70;;;15.00;99.90;;;;;;5016291;28;20568;-62
2021/07/15 04:09:38;;;;;;;1.13;0.90;;;15.00;99.90;;;;;;5023429;28;20455;-62
2021/07/15 04:12:06;;;;;;;0.60;0.60;;;15.10;99.90;;;;;;5035961;28;20428;-62
2021/07/15 04:15:05;;;;;;;2.03;1.10;;;15.10;99.90;;;;;;5036057;28;20926;-61
2021/07/15 04:17:35;;;;;;;1.10;1.00;;;15.10;99.90;;;;;;5035945;28;20870;-62
2021/07/15 04:20:04;;;;;;;1.33;0.50;;;15.10;99.90;;;;;;5017655;28;20441;-62
2021/07/15 04:22:31;;;;;;;0.97;0.87;;;15.10;99.90;;;;;;5035615;28;20413;-62
2021/07/15 04:24:58;;;;;;;1.47;0.93;;;15.00;99.90;;;;;;5035782;28;20408;-62
2021/07/15 04:27:27;;;;;;;1.03;0.93;;;15.00;99.90;;;;;;5035590;28;20448;-63
2021/07/15 04:30:00;;;;;;;0.90;0.90;;;15.00;99.90;;;;;;5035237;28;20455;-63
2021/07/15 04:32:46;;;;;;;4.70;1.47;;;15.00;99.90;;;;;;5033341;28;20429;-64
2021/07/15 04:35:14;;;;;;;1.73;0.70;;;15.00;99.90;;;;;;5015747;28;20934;-62
2021/07/15 04:37:42;;;;;;;1.53;0.50;;;15.10;99.90;;;;;;5015621;28;20461;-61
2021/07/15 04:40:11;;;;;;;4.60;0.90;;;15.10;99.90;;;;;;5022155;28;20440;-62
2021/07/15 04:42:38;;;;;;;4.40;0.80;;;15.10;99.90;;;;;;5035319;28;20433;-62
2021/07/15 04:45:04;;;;;;;0.70;0.60;;;15.20;99.90;;;;;;5035277;28;20417;-62
2021/07/15 04:47:31;;;;;;;0.70;0.60;;;15.20;99.90;;;;;;5035195;28;20516;-63
2021/07/15 04:49:58;;;;;;;1.90;0.53;;;15.20;99.90;;;;;;5027936;28;20457;-62
2021/07/15 04:52:24;;;;;;;0.70;0.70;;;15.20;99.90;;;;;;5028121;28;21174;-62
2021/07/15 04:54:51;;;;;;;1.00;0.80;;;15.20;99.90;;;;;;5024072;28;20439;-61
2021/07/15 04:57:17;;;;;;;1.33;0.70;;;15.20;99.90;;;;;;5034934;28;20626;-63
2021/07/15 04:59:43;;;;;;;0.80;0.73;;;15.20;99.90;;;;;;5026854;28;20503;-62
2021/07/15 05:02:09;;;;;;;0.97;0.73;;;15.20;99.90;;;;;;5026789;28;20851;-63
2021/07/15 05:04:35;;;;;;;1.30;0.70;;;15.30;99.90;;;;;;5020527;28;20178;-62
2021/07/15 05:07:01;;;;;;;0.60;0.60;;;15.20;99.90;;;;;;5023472;28;20437;-62
2021/07/15 05:09:26;;;;;;;1.80;0.70;;;15.30;99.90;;;;;;5018327;28;20496;-62
2021/07/15 05:11:52;;;;;;;0.70;0.60;;;15.30;99.90;;;;;;5034195;28;20182;-63
2021/07/15 05:14:18;;;;;;;1.03;0.83;;;15.40;99.90;;;;;;5033710;28;20660;-63
2021/07/15 05:16:44;;;;;;;1.53;0.70;;;15.50;99.90;;;;;;5034672;28;20208;-62
2021/07/15 05:19:09;;;;;;;1.10;0.70;;;15.60;99.90;;;;;;5034560;28;20178;-63
2021/07/15 05:21:35;;;;;;;3.20;2.73;;;15.70;99.90;;;;;;5034617;28;20205;-63
2021/07/15 05:24:00;;;;;;;2.20;0.90;;;15.80;99.90;;;;;;5034578;28;20170;-62
2021/07/15 05:26:26;;;;;;;1.37;0.90;;;15.70;99.90;;;;;;5034528;28;20297;-62
2021/07/15 05:28:52;;;;;;;2.40;0.70;;;15.70;99.90;;;;;;5016471;28;20189;-63
2021/07/15 05:31:21;;;;;;;2.30;0.70;;;15.80;99.90;;;;;;5034492;28;20443;-63
2021/07/15 05:33:46;;;;;;;0.80;0.63;;;15.80;99.90;;;;;;5034475;28;20177;-63
2021/07/15 05:36:12;;;;;;;2.13;1.10;;;15.90;99.90;;;;;;5034405;28;20949;-63
2021/07/15 05:38:38;;;;;;;2.07;0.80;;;16.00;99.90;;;;;;5034160;28;20206;-63
2021/07/15 05:41:05;;;;;;;0.80;0.80;;;16.10;99.90;;;;;;5024624;28;20544;-63
2021/07/15 05:43:31;;;;;;;0.80;0.80;;;16.30;99.90;;;;;;5015272;28;20274;-61
2021/07/15 05:45:57;;;;;;;0.77;0.67;;;16.40;99.90;;;;;;5014399;28;20472;-62
2021/07/15 05:48:23;;;;;;;2.43;1.00;;;16.60;99.90;;;;;;5014088;28;20425;-64
2021/07/15 05:50:49;;;;;;;2.13;0.90;;;16.70;99.90;;;;;;5014263;28;20198;-63
2021/07/15 05:53:14;;;;;;;0.70;0.60;;;16.70;99.90;;;;;;5014363;28;20175;-62
2021/07/15 05:55:40;;;;;;;3.13;0.90;;;16.60;99.90;;;;;;5014129;28;20178;-63
2021/07/15 05:58:05;;;;;;;0.80;0.80;;;16.60;99.90;;;;;;5014136;28;20202;-62
2021/07/15 06:00:31;;;;;;;1.67;0.90;;;16.50;99.90;;;;;;5014094;28;20280;-62
2021/07/15 06:02:56;;;;;;;0.93;0.77;;;16.50;99.90;;;;;;5023841;28;20186;-62
2021/07/15 06:05:22;;;;;;;9.67;5.70;;;16.70;99.90;;;;;;5033846;28;20174;-62
2021/07/15 06:07:50;;;;;;;2.17;0.80;;;16.80;99.90;;;;;;5033223;28;20224;-62
2021/07/15 06:10:16;;;;;;;0.90;0.80;;;17.00;99.90;;;;;;5032501;28;20639;-62
2021/07/15 06:12:41;;;;;;;1.03;0.93;;;17.10;99.90;;;;;;5033650;28;20504;-62
2021/07/15 06:15:07;;;;;;;2.63;0.80;;;17.30;99.90;;;;;;5027657;28;20187;-64
2021/07/15 06:17:35;;;;;;;2.50;0.97;;;17.30;99.90;;;;;;5019072;28;20289;-61
2021/07/15 06:20:00;;;;;;;0.70;0.60;;;17.20;99.90;;;;;;5013476;28;20446;-63
2021/07/15 06:22:26;;;;;;;1.80;1.67;;;17.20;99.90;;;;;;5013853;28;20487;-63
2021/07/15 06:24:51;;;;;;;0.70;0.70;;;17.30;99.90;;;;;;5013596;28;20253;-62
2021/07/15 06:27:17;;;;;;;0.90;0.70;;;17.50;99.90;;;;;;5013568;28;20637;-63
2021/07/15 06:29:42;;;;;;;3.63;1.00;;;17.50;99.90;;;;;;5009491;28;20297;-67
2021/07/15 06:32:08;;;;;;;1.40;0.90;;;17.30;99.90;;;;;;5006389;28;20182;-63
2021/07/15 06:34:34;;;;;;;0.83;0.77;;;17.30;99.90;;;;;;5032972;28;20177;-63
2021/07/15 06:37:00;;;;;;;1.47;0.70;;;17.20;99.90;;;;;;5033074;28;20221;-62
2021/07/15 06:39:25;;;;;;;1.27;0.53;;;17.30;99.90;;;;;;5030861;28;20181;-64
2021/07/15 06:41:51;;;;;;;1.57;0.83;;;17.30;99.90;;;;;;5052744;28;20424;-62
2021/07/15 06:44:17;;;;;;;3.63;0.97;;;17.30;99.90;;;;;;5052849;28;20252;-62
2021/07/15 06:46:42;;;;;;;3.80;2.23;;;17.30;99.90;;;;;;5033226;28;20520;-63
2021/07/15 06:49:08;;;;;;;1.10;1.10;;;17.40;99.90;;;;;;5022425;28;20670;-63
2021/07/15 06:51:34;;;;;;;0.93;0.80;;;17.50;99.90;;;;;;5029821;28;20200;-63
2021/07/15 06:54:00;;;;;;;3.40;1.20;;;17.70;99.90;;;;;;5026842;28;20189;-63
2021/07/15 06:56:26;;;;;;;2.73;2.53;;;17.90;99.90;;;;;;5030062;28;20827;-63
2021/07/15 06:58:51;;;;;;;1.73;1.27;;;18.00;99.90;;;;;;5031986;28;20189;-63
2021/07/15 07:01:17;;;;;;;1.20;0.80;;;17.80;99.90;;;;;;5035815;28;20210;-63
2021/07/15 07:03:42;;;;;;;0.97;0.87;;;17.80;99.90;;;;;;5029536;28;20176;-62
2021/07/15 07:06:08;;;;;;;1.40;0.97;;;18.00;99.90;;;;;;5029541;28;20216;-64
2021/07/15 07:08:33;;;;;;;0.90;0.90;;;18.00;99.90;;;;;;5029200;28;20660;-62
2021/07/15 07:10:59;;;;;;;5.17;1.40;;;18.40;99.90;;;;;;5029229;28;20556;-64
2021/07/15 07:13:25;;;;;;;1.73;0.77;;;18.60;99.90;;;;;;5029439;28;20174;-63
2021/07/15 07:15:50;;;;;;;1.57;1.40;;;18.70;99.90;;;;;;5029238;28;20456;-65
2021/07/15 07:18:16;;;;;;;6.33;1.07;;;19.00;99.90;;;;;;5029177;28;20183;-63
2021/07/15 07:20:41;;;;;;;3.00;1.50;;;19.20;99.90;;;;;;5029027;28;20702;-63
2021/07/15 07:23:13;;;;;;;5.70;3.97;;;19.30;99.90;;;;;;5029222;28;20178;-64
2021/07/15 07:25:39;;;;;;;3.93;1.77;;;19.50;99.90;;;;;;5028812;28;20220;-63
2021/07/15 07:28:05;;;;;;;1.10;0.80;;;19.50;99.90;;;;;;5028961;28;20425;-63
2021/07/15 07:30:30;;;;;;;1.60;0.90;;;19.60;99.90;;;;;;5028871;28;20476;-63
2021/07/15 07:32:56;;;;;;;0.97;0.73;;;19.50;99.90;;;;;;5029230;28;20201;-63
2021/07/15 07:35:22;;;;;;;2.63;0.73;;;19.40;99.90;;;;;;5029065;28;20554;-61
2021/07/15 07:37:47;;;;;;;1.00;0.70;;;19.50;99.90;;;;;;5028881;28;20209;-63
2021/07/15 07:40:14;;;;;;;5.07;0.77;;;19.40;99.90;;;;;;5028534;28;20248;-65
2021/07/15 07:42:41;;;;;;;1.20;1.10;;;19.50;99.90;;;;;;5029153;28;20271;-63
2021/07/15 07:45:11;;;;;;;1.00;0.70;;;19.60;99.90;;;;;;5028926;28;20842;-63
2021/07/15 07:47:37;;;;;;;2.80;0.87;;;19.80;99.90;;;;;;5031874;28;20447;-63
2021/07/15 07:50:05;;;;;;;2.60;1.00;;;19.90;99.90;;;;;;5048467;28;20442;-63
2021/07/15 07:52:31;;;;;;;1.73;0.80;;;19.50;99.90;;;;;;5041996;28;20798;-62
2021/07/15 07:54:56;;;;;;;1.30;0.77;;;19.70;99.90;;;;;;5028738;28;20423;-65
2021/07/15 07:57:22;;;;;;;1.00;0.90;;;19.80;99.90;;;;;;5028616;28;20210;-63
2021/07/15 07:59:47;;;;;;;1.63;0.70;;;19.80;99.90;;;;;;5028325;28;20216;-62
2021/07/15 08:02:13;;;;;;;0.53;0.53;;;19.80;99.90;;;;;;5028774;28;20651;-65
2021/07/15 08:04:39;;;;;;;0.60;0.60;;;19.80;99.90;;;;;;5028924;28;20166;-63
2021/07/15 08:07:08;;;;;;;0.60;0.60;;;19.90;99.90;;;;;;5028591;28;20432;-62
2021/07/15 08:09:42;;;;;;;0.90;0.60;;;20.20;99.90;;;;;;5028384;28;20224;-63
2021/07/15 08:12:07;;;;;;;2.60;1.60;;;20.30;99.90;;;;;;5028644;28;20803;-62
2021/07/15 08:14:35;;;;;;;2.03;1.87;;;20.80;99.90;;;;;;5028707;28;20421;-63
2021/07/15 08:17:01;;;;;;;3.53;2.50;;;21.40;99.90;;;;;;5028468;28;20287;-62
2021/07/15 08:19:26;;;;;;;5.27;4.43;;;21.60;99.90;;;;;;5030256;28;21252;-62
2021/07/15 08:21:52;;;;;;;3.37;2.50;;;21.80;99.90;;;;;;5048298;28;20170;-62
2021/07/15 08:24:17;;;;;;;4.43;2.23;;;21.50;99.90;;;;;;5048269;28;20256;-64
2021/07/15 08:26:43;;;;;;;2.30;1.60;;;21.70;99.90;;;;;;5030427;28;20185;-63
2021/07/15 08:29:08;;;;;;;2.93;1.73;;;21.30;99.90;;;;;;5048142;28;20900;-62
2021/07/15 08:31:34;;;;;;;1.77;1.10;;;21.60;99.90;;;;;;5048170;28;20244;-62
2021/07/15 08:33:59;;;;;;;2.00;1.27;;;21.70;99.90;;;;;;5048325;28;20170;-63
2021/07/15 08:36:28;;;;;;;2.30;1.00;;;21.60;99.90;;;;;;5048185;28;20244;-63
2021/07/15 08:38:53;;;;;;;0.70;0.70;;;21.60;99.90;;;;;;5048020;28;20162;-62
2021/07/15 08:41:19;;;;;;;0.90;0.90;;;21.70;99.90;;;;;;5047952;28;20498;-63
2021/07/15 08:43:46;;;;;;;0.67;0.60;;;21.70;99.90;;;;;;5048371;28;20172;-64
2021/07/15 08:46:14;;;;;;;1.80;1.47;;;21.80;99.90;;;;;;5048351;28;20243;-64
2021/07/15 08:48:41;;;;;;;0.80;0.80;;;21.80;99.90;;;;;;5037211;28;20428;-62
2021/07/15 08:51:06;;;;;;;0.60;0.50;;;21.70;99.90;;;;;;5022782;28;20485;-63
2021/07/15 08:53:35;;;;;;;0.93;0.70;;;21.50;99.90;;;;;;5026907;28;20420;-63
2021/07/15 08:58:44;;;;;;;2.07;1.67;;;21.00;99.90;;;;;;5031545;28;20459;-63
2021/07/15 09:01:11;;;;;;;1.73;0.80;;;20.80;99.90;;;;;;5031562;28;20480;-63
2021/07/15 09:03:37;;;;;;;0.83;0.80;;;20.40;99.90;;;;;;5031083;28;20189;-62
2021/07/15 09:06:02;;;;;;;3.30;0.70;;;20.30;99.90;;;;;;5031796;28;20428;-63
2021/07/15 09:08:32;;;;;;;1.30;1.10;;;20.30;99.90;;;;;;5031458;28;20182;-63
2021/07/15 09:10:59;;;;;;;1.23;1.13;;;20.30;99.90;;;;;;5031673;28;20679;-63
2021/07/15 09:13:25;;;;;;;2.80;2.60;;;20.50;99.90;;;;;;5031434;28;20436;-62
2021/07/15 09:15:51;;;;;;;1.50;0.70;;;20.60;99.90;;;;;;5031320;28;20431;-63
2021/07/15 09:18:17;;;;;;;0.60;0.60;;;20.50;99.90;;;;;;5031565;28;20166;-63
2021/07/15 09:20:43;;;;;;;2.50;1.00;;;20.70;99.90;;;;;;5031538;28;20612;-63
2021/07/15 09:23:12;;;;;;;0.63;0.60;;;20.90;99.90;;;;;;5031551;28;20421;-64
2021/07/15 09:25:37;;;;;;;0.83;0.73;;;21.10;99.90;;;;;;5031166;28;20447;-62
2021/07/15 09:28:05;;;;;;;0.77;0.77;;;21.00;99.90;;;;;;5031208;28;20445;-63
2021/07/15 09:30:31;;;;;;;0.97;0.60;;;20.90;99.90;;;;;;5012700;28;20234;-62
2021/07/15 09:33:03;;;;;;;0.80;0.80;;;20.90;99.90;;;;;;5031226;28;20421;-64
2021/07/15 09:35:46;;;;;;;0.70;0.70;;;20.90;99.90;;;;;;5031110;28;20425;-63
2021/07/15 09:38:15;;;;;;;1.33;1.10;;;20.90;99.90;;;;;;5031040;28;20420;-64
2021/07/15 09:40:54;;;;;;;1.60;1.20;;;21.00;99.90;;;;;;5030820;28;20444;-63
2021/07/15 09:43:29;;;;;;;1.10;1.00;;;21.40;99.90;;;;;;5031173;28;20409;-63
2021/07/15 09:45:57;;;;;;;1.37;1.27;;;21.40;99.90;;;;;;5031309;28;20941;-62
2021/07/15 09:48:28;;;;;;;0.80;0.80;;;21.50;99.90;;;;;;5032130;28;20475;-63
2021/07/15 09:50:57;;;;;;;0.90;0.90;;;21.80;99.90;;;;;;5030738;28;20490;-63
2021/07/15 09:53:24;;;;;;;0.90;0.90;;;21.70;99.90;;;;;;5030748;28;20409;-63
2021/07/15 09:56:08;;;;;;;1.17;0.80;;;21.60;99.90;;;;;;5030815;28;20421;-62
2021/07/15 09:58:38;;;;;;;0.60;0.60;;;21.70;99.90;;;;;;5030441;28;20451;-63
2021/07/15 10:01:11;;;;;;;0.90;0.90;;;21.90;99.90;;;;;;5029969;28;20515;-63
2021/07/15 10:03:39;;;;;;;1.00;0.80;;;22.10;99.90;;;;;;5030577;28;20900;-62
2021/07/15 10:06:05;;;;;;;2.20;1.10;;;22.40;99.90;;;;;;5031187;28;20425;-62
2021/07/15 10:08:33;;;;;;;0.77;0.77;;;22.20;99.90;;;;;;5030297;28;20778;-62
2021/07/15 10:11:23;;;;;;;2.10;0.80;;;22.10;99.90;;;;;;5030347;28;20441;-62
2021/07/15 10:14:07;;;;;;;1.33;0.90;;;22.30;99.90;;;;;;5030500;28;20424;-63
2021/07/15 10:16:34;;;;;;;1.83;0.80;;;22.80;99.90;;;;;;5030337;28;20885;-65
2021/07/15 10:19:01;;;;;;;0.70;0.60;;;22.80;99.90;;;;;;5030048;28;20423;-63
2021/07/15 10:21:29;;;;;;;1.27;0.73;;;22.90;99.90;;;;;;5048781;28;20440;-62
2021/07/15 10:23:56;;;;;;;3.23;1.57;;;22.60;99.90;;;;;;5050075;28;20956;-62
2021/07/15 10:26:23;;;;;;;1.47;0.90;;;22.30;99.90;;;;;;5050081;28;20513;-63
2021/07/15 10:28:51;;;;;;;1.87;1.10;;;21.60;99.90;;;;;;5049790;28;20427;-60
2021/07/15 10:31:19;;;;;;;3.23;0.93;;;21.30;99.90;;;;;;5044894;28;20806;-62
2021/07/15 10:33:46;;;;;;;4.00;1.27;;;21.20;99.90;;;;;;5030043;28;20437;-64
2021/07/15 10:36:12;;;;;;;1.20;1.10;;;21.00;99.90;;;;;;5029872;28;20461;-63
2021/07/15 10:38:40;;;;;;;4.27;1.33;;;20.80;99.90;;;;;;5029852;28;20425;-63
2021/07/15 10:41:07;;;;;;;3.63;1.33;;;20.60;99.90;;;;;;5029911;28;20448;-62
2021/07/15 10:43:33;;;;;;;1.10;1.00;;;20.40;99.90;;;;;;5029710;28;20524;-63
2021/07/15 10:46:01;;;;;;;2.20;1.37;;;20.40;99.90;;;;;;5029847;28;20508;-62
2021/07/15 10:48:29;;;;;;;1.97;1.20;;;20.30;99.90;;;;;;5029247;28;20429;-63
2021/07/15 10:50:55;;;;;;;1.07;1.07;;;20.10;99.90;;;;;;5029768;28;20447;-63
2021/07/15 10:53:21;;;;;;;1.50;0.80;;;20.10;99.90;;;;;;5029694;28;20504;-64
2021/07/15 10:55:47;;;;;;;0.90;0.90;;;20.40;99.90;;;;;;5029562;28;20520;-62
2021/07/15 10:58:13;;;;;;;1.10;0.90;;;20.70;99.90;;;;;;5029272;28;20421;-65
2021/07/15 11:00:49;;;;;;;1.93;1.17;;;21.10;99.90;;;;;;5029342;28;20871;-63
2021/07/15 11:03:21;;;;;;;1.63;0.70;;;21.30;99.90;;;;;;5029419;28;20215;-63
2021/07/15 11:06:00;;;;;;;1.20;0.80;;;21.90;99.90;;;;;;5029483;28;20424;-62
2021/07/15 11:08:43;;;;;;;1.23;0.80;;;23.10;99.90;;;;;;5028987;28;20439;-63
2021/07/15 11:11:10;;;;;;;1.10;0.93;;;25.10;99.90;;;;;;5029124;28;21056;-63
2021/07/15 11:13:36;;;;;;;2.57;1.63;;;26.60;99.90;;;;;;5028799;28;20525;-62
2021/07/15 11:16:05;;;;;;;0.90;0.70;;;27.30;99.90;;;;;;5028968;28;20496;-62
2021/07/15 11:21:26;;;;;;;1.40;1.00;;;26.40;99.90;;;;;;5045899;28;20489;-63
2021/07/15 11:24:21;;;;;;;1.10;1.00;;;25.80;99.90;;;;;;5049284;28;20484;-62
2021/07/15 11:26:47;;;;;;;1.20;1.03;;;26.10;99.90;;;;;;5046554;28;20441;-63
2021/07/15 11:29:14;;;;;;;0.70;0.70;;;27.10;99.90;;;;;;5018303;28;20434;-63
2021/07/15 11:31:48;;;;;;;1.00;0.83;;;27.30;99.90;;;;;;5023131;28;20421;-64
2021/07/15 11:34:33;;;;;;;1.20;0.60;;;27.10;99.90;;;;;;5029344;28;20429;-63
2021/07/15 11:37:27;;;;;;;0.80;0.80;;;26.30;99.90;;;;;;5028930;28;20456;-63
2021/07/15 11:39:56;;;;;;;1.97;1.07;;;25.60;99.90;;;;;;5028558;28;20432;-63
2021/07/15 11:42:24;;;;;;;1.10;0.90;;;24.90;99.90;;;;;;5029158;28;20409;-62
2021/07/15 11:45:16;;;;;;;0.90;0.80;;;24.20;99.90;;;;;;5029162;28;20914;-64
2021/07/15 11:47:54;;;;;;;1.00;0.70;;;24.00;99.90;;;;;;5030468;28;20436;-61
2021/07/15 11:50:33;;;;;;;1.03;0.80;;;23.90;99.90;;;;;;5028482;28;20511;-63
2021/07/15 11:53:15;;;;;;;1.30;1.20;;;23.60;99.90;;;;;;5028865;28;20431;-62
2021/07/15 11:55:41;;;;;;;3.57;1.27;;;23.60;99.90;;;;;;5028942;28;20416;-63
2021/07/15 11:58:06;;;;;;;1.73;1.10;;;23.60;99.90;;;;;;5028845;28;20433;-64
2021/07/15 12:00:32;;;;;;;0.90;0.90;;;23.30;99.90;;;;;;5028232;28;20473;-63
2021/07/15 12:02:58;;;;;;;1.50;1.40;;;23.20;99.90;;;;;;5029006;28;20178;-62
2021/07/15 12:05:28;;;;;;;1.43;1.10;;;23.20;99.90;;;;;;5028906;28;20428;-63
2021/07/15 12:08:11;;;;;;;1.10;1.00;;;22.80;99.90;;;;;;5028681;28;20425;-63
2021/07/15 12:10:40;;;;;;;1.00;1.00;;;22.60;99.90;;;;;;5027989;28;20448;-62
2021/07/15 12:13:07;;;;;;;0.80;0.80;;;22.70;99.90;;;;;;5010401;28;21030;-63
2021/07/15 12:15:34;;;;;;;5.20;0.90;;;22.70;99.90;;;;;;5028625;28;20524;-61
2021/07/15 12:18:07;;;;;;;1.23;1.00;;;22.60;99.90;;;;;;5028499;28;20464;-63
2021/07/15 12:20:48;;;;;;;1.00;1.00;;;22.40;99.90;;;;;;5039462;28;21033;-62
2021/07/15 12:23:32;;;;;;;1.17;1.03;;;22.00;99.90;;;;;;5048672;28;20423;-62
2021/07/15 12:25:59;;;;;;;1.00;0.80;;;22.00;99.90;;;;;;5052311;28;20507;-63
2021/07/15 12:28:28;;;;;;;0.90;0.90;;;22.10;99.90;;;;;;5051884;28;20419;-63
2021/07/15 12:30:58;;;;;;;1.60;1.20;;;22.10;99.90;;;;;;5033956;28;20439;-62
2021/07/15 12:33:54;;;;;;;2.50;1.20;;;22.10;99.90;;;;;;5051962;28;20628;-63
2021/07/15 12:36:25;;;;;;;0.90;0.90;;;22.10;99.90;;;;;;5051453;28;20523;-65
2021/07/15 12:38:53;;;;;;;0.90;0.83;;;22.20;99.90;;;;;;5051572;28;20416;-62
2021/07/15 12:41:30;;;;;;;1.07;1.03;;;22.40;99.90;;;;;;5051637;28;20526;-63
2021/07/15 12:44:01;;;;;;;0.90;0.90;;;22.70;99.90;;;;;;5018329;28;20433;-63
2021/07/15 12:46:35;;;;;;;1.20;1.00;;;22.70;99.90;;;;;;5028955;28;20441;-64
2021/07/15 12:49:16;;;;;;;2.53;1.30;;;23.00;99.90;;;;;;5026331;28;20422;-63
2021/07/15 12:51:44;;;;;;;1.27;1.07;;;23.40;99.90;;;;;;5011977;28;20508;-64
2021/07/15 12:54:14;;;;;;;1.30;1.00;;;23.60;99.90;;;;;;5011998;28;20995;-63
2021/07/15 12:56:40;;;;;;;1.17;1.10;;;23.80;99.90;;;;;;5011733;28;20465;-64
2021/07/15 12:59:12;;;;;;;1.10;1.10;;;24.00;99.90;;;;;;5016292;28;20444;-63
2021/07/15 13:01:40;;;;;;;0.87;0.87;;;24.00;99.90;;;;;;5023601;28;20437;-62
2021/07/15 13:04:13;;;;;;;1.53;1.10;;;24.00;99.90;;;;;;5031697;28;20471;-63